sensor_id;sensor_type;location;lat;lon;timestamp;temperature;humidity
15217;DHT22;7711;46.634;14.318;2023-02-28T00:00:13;-1.40;99.90
15217;DHT22;7711;46.634;14.318;2023-02-28T00:02:41;-1.40;99.90
15217;DHT22;7711;46.634;14.318;2023-02-28T00:05:10;-1.40;99.90
15217;DHT22;7711;46.634;14.318;2023-02-28T00:07:38;-1.40;99.90
15217;DHT22;7711;46.634;14.318;2023-02-28T00:10:09;-1.40;99.90
15217;DHT22;7711;46.634;14.318;2023-02-28T00:12:37;-1.40;99.90
15217;DHT22;7711;46.634;14.318;2023-02-28T00:15:06;-1.40;99.90
15217;DHT22;7711;46.634;14.318;2023-02-28T00:17:33;-1.40;99.90
15217;DHT22;7711;46.634;14.318;2023-02-28T00:20:01;-1.40;99.90
15217;DHT22;7711;46.634;14.318;2023-02-28T00:22:37;-1.40;99.90
15217;DHT22;7711;46.634;14.318;2023-02-28T00:25:07;-1.40;99.90
15217;DHT22;7711;46.634;14.318;2023-02-28T00:27:35;-1.40;99.90
15217;DHT22;7711;46.634;14.318;2023-02-28T00:30:03;-1.40;99.90
15217;DHT22;7711;46.634;14.318;2023-02-28T00:32:30;-1.40;99.90
15217;DHT22;7711;46.634;14.318;2023-02-28T00:34:57;-1.40;99.90
15217;DHT22;7711;46.634;14.318;2023-02-28T00:37:24;-1.40;99.90
15217;DHT22;7711;46.634;14.318;2023-02-28T00:39:52;-1.40;99.90
15217;DHT22;7711;46.634;14.318;2023-02-28T00:42:20;-1.50;99.90
15217;DHT22;7711;46.634;14.318;2023-02-28T00:44:47;-1.50;99.90
15217;DHT22;7711;46.634;14.318;2023-02-28T00:47:14;-1.50;99.90
15217;DHT22;7711;46.634;14.318;2023-02-28T00:49:41;-1.50;99.90
15217;DHT22;7711;46.634;14.318;2023-02-28T00:52:08;-1.50;99.90
15217;DHT22;7711;46.634;14.318;2023-02-28T00:54:35;-1.50;99.90
15217;DHT22;7711;46.634;14.318;2023-02-28T00:57:03;-1.50;99.90
15217;DHT22;7711;46.634;14.318;2023-02-28T00:59:31;-1.50;99.90
15217;DHT22;7711;46.634;14.318;2023-02-28T01:01:58;-1.60;99.90
15217;DHT22;7711;46.634;14.318;2023-02-28T01:04:25;-1.60;99.90
15217;DHT22;7711;46.634;14.318;2023-02-28T01:06:52;-1.60;99.90
15217;DHT22;7711;46.634;14.318;2023-02-28T01:09:19;-1.60;99.90
15217;DHT22;7711;46.634;14.318;2023-02-28T01:11:46;-1.50;99.90
15217;DHT22;7711;46.634;14.318;2023-02-28T01:14:15;-1.50;99.90
15217;DHT22;7711;46.634;14.318;2023-02-28T01:16:44;-1.50;99.90
15217;DHT22;7711;46.634;14.318;2023-02-28T01:19:11;-1.50;99.90
15217;DHT22;7711;46.634;14.318;2023-02-28T01:21:38;-1.50;99.90
15217;DHT22;7711;46.634;14.318;2023-02-28T01:24:06;-1.50;99.90
15217;DHT22;7711;46.634;14.318;2023-02-28T01:26:33;-1.50;99.90
15217;DHT22;7711;46.634;14.318;2023-02-28T01:29:00;-1.50;99.90
15217;DHT22;7711;46.634;14.318;2023-02-28T01:31:27;-1.50;99.90
15217;DHT22;7711;46.634;14.318;2023-02-28T01:33:55;-1.40;99.90
15217;DHT22;7711;46.634;14.318;2023-02-28T01:36:23;-1.40;99.90
15217;DHT22;7711;46.634;14.318;2023-02-28T01:38:51;-1.40;99.90
15217;DHT22;7711;46.634;14.318;2023-02-28T01:41:20;-1.40;99.90
15217;DHT22;7711;46.634;14.318;2023-02-28T01:44:00;-1.30;99.90
15217;DHT22;7711;46.634;14.318;2023-02-28T01:46:30;-1.40;99.90
15217;DHT22;7711;46.634;14.318;2023-02-28T01:49:04;-1.40;99.90
15217;DHT22;7711;46.634;14.318;2023-02-28T01:51:35;-1.30;99.90
15217;DHT22;7711;46.634;14.318;2023-02-28T01:54:07;-1.40;99.90
15217;DHT22;7711;46.634;14.318;2023-02-28T01:56:41;-1.30;99.90
15217;DHT22;7711;46.634;14.318;2023-02-28T01:59:13;-1.40;99.90
15217;DHT22;7711;46.634;14.318;2023-02-28T02:01:40;-1.30;99.90
15217;DHT22;7711;46.634;14.318;2023-02-28T02:04:09;-1.40;99.90
15217;DHT22;7711;46.634;14.318;2023-02-28T02:06:39;-1.40;99.90
15217;DHT22;7711;46.634;14.318;2023-02-28T02:09:07;-1.40;99.90
15217;DHT22;7711;46.634;14.318;2023-02-28T02:11:35;-1.40;99.90
15217;DHT22;7711;46.634;14.318;2023-02-28T02:14:31;-1.40;99.90
15217;DHT22;7711;46.634;14.318;2023-02-28T02:17:09;-1.40;99.90
15217;DHT22;7711;46.634;14.318;2023-02-28T02:23:08;-1.50;99.90
15217;DHT22;7711;46.634;14.318;2023-02-28T02:25:47;-1.50;99.90
15217;DHT22;7711;46.634;14.318;2023-02-28T02:28:42;-1.50;99.90
15217;DHT22;7711;46.634;14.318;2023-02-28T02:31:32;-1.50;99.90
15217;DHT22;7711;46.634;14.318;2023-02-28T02:34:33;-1.40;99.90
15217;DHT22;7711;46.634;14.318;2023-02-28T02:37:15;-1.50;99.90
15217;DHT22;7711;46.634;14.318;2023-02-28T02:39:48;-1.40;99.90
15217;DHT22;7711;46.634;14.318;2023-02-28T02:42:21;-1.40;99.90
15217;DHT22;7711;46.634;14.318;2023-02-28T02:44:54;-1.50;99.90
15217;DHT22;7711;46.634;14.318;2023-02-28T02:47:26;-1.50;99.90
15217;DHT22;7711;46.634;14.318;2023-02-28T02:49:58;-1.50;99.90
15217;DHT22;7711;46.634;14.318;2023-02-28T02:52:31;-1.40;99.90
15217;DHT22;7711;46.634;14.318;2023-02-28T02:55:02;-1.40;99.90
15217;DHT22;7711;46.634;14.318;2023-02-28T02:57:33;-1.40;99.90
15217;DHT22;7711;46.634;14.318;2023-02-28T03:00:03;-1.50;99.90
15217;DHT22;7711;46.634;14.318;2023-02-28T03:02:32;-1.50;99.90
15217;DHT22;7711;46.634;14.318;2023-02-28T03:05:04;-1.50;99.90
15217;DHT22;7711;46.634;14.318;2023-02-28T03:07:33;-1.50;99.90
15217;DHT22;7711;46.634;14.318;2023-02-28T03:10:00;-1.60;99.90
15217;DHT22;7711;46.634;14.318;2023-02-28T03:12:33;-1.50;99.90
15217;DHT22;7711;46.634;14.318;2023-02-28T03:15:11;-1.50;99.90
15217;DHT22;7711;46.634;14.318;2023-02-28T03:17:53;-1.50;99.90
15217;DHT22;7711;46.634;14.318;2023-02-28T03:20:35;-1.50;99.90
15217;DHT22;7711;46.634;14.318;2023-02-28T03:23:13;-1.50;99.90
15217;DHT22;7711;46.634;14.318;2023-02-28T03:25:52;-1.50;99.90
15217;DHT22;7711;46.634;14.318;2023-02-28T03:28:27;-1.50;99.90
15217;DHT22;7711;46.634;14.318;2023-02-28T03:31:02;-1.50;99.90
15217;DHT22;7711;46.634;14.318;2023-02-28T03:33:38;-1.40;99.90
15217;DHT22;7711;46.634;14.318;2023-02-28T03:36:10;-1.40;99.90
15217;DHT22;7711;46.634;14.318;2023-02-28T03:38:41;-1.40;99.90
15217;DHT22;7711;46.634;14.318;2023-02-28T03:41:13;-1.50;99.90
15217;DHT22;7711;46.634;14.318;2023-02-28T03:43:45;-1.50;99.90
15217;DHT22;7711;46.634;14.318;2023-02-28T03:46:17;-1.40;99.90
15217;DHT22;7711;46.634;14.318;2023-02-28T03:48:51;-1.50;99.90
15217;DHT22;7711;46.634;14.318;2023-02-28T03:51:22;-1.40;99.90
15217;DHT22;7711;46.634;14.318;2023-02-28T03:53:52;-1.40;99.90
15217;DHT22;7711;46.634;14.318;2023-02-28T03:56:22;-1.40;99.90
15217;DHT22;7711;46.634;14.318;2023-02-28T03:58:55;-1.40;99.90
15217;DHT22;7711;46.634;14.318;2023-02-28T04:01:26;-1.40;99.90
15217;DHT22;7711;46.634;14.318;2023-02-28T04:03:54;-1.40;99.90
15217;DHT22;7711;46.634;14.318;2023-02-28T04:06:23;-1.40;99.90
15217;DHT22;7711;46.634;14.318;2023-02-28T04:08:51;-1.50;99.90
15217;DHT22;7711;46.634;14.318;2023-02-28T04:11:23;-1.50;99.90
15217;DHT22;7711;46.634;14.318;2023-02-28T04:13:52;-1.50;99.90
15217;DHT22;7711;46.634;14.318;2023-02-28T04:16:19;-1.50;99.90
15217;DHT22;7711;46.634;14.318;2023-02-28T04:18:46;-1.50;99.90
15217;DHT22;7711;46.634;14.318;2023-02-28T04:21:13;-1.50;99.90
15217;DHT22;7711;46.634;14.318;2023-02-28T04:23:41;-1.40;99.90
15217;DHT22;7711;46.634;14.318;2023-02-28T04:26:08;-1.40;99.90
15217;DHT22;7711;46.634;14.318;2023-02-28T04:28:37;-1.40;99.90
15217;DHT22;7711;46.634;14.318;2023-02-28T04:31:05;-1.50;99.90
15217;DHT22;7711;46.634;14.318;2023-02-28T04:33:32;-1.50;99.90
15217;DHT22;7711;46.634;14.318;2023-02-28T04:36:00;-1.50;99.90
15217;DHT22;7711;46.634;14.318;2023-02-28T04:38:28;-1.50;99.90
15217;DHT22;7711;46.634;14.318;2023-02-28T04:40:58;-1.50;99.90
15217;DHT22;7711;46.634;14.318;2023-02-28T04:43:26;-1.50;99.90
15217;DHT22;7711;46.634;14.318;2023-02-28T04:45:54;-1.50;99.90
15217;DHT22;7711;46.634;14.318;2023-02-28T04:48:22;-1.50;99.90
15217;DHT22;7711;46.634;14.318;2023-02-28T04:50:50;-1.50;99.90
15217;DHT22;7711;46.634;14.318;2023-02-28T04:53:17;-1.50;99.90
15217;DHT22;7711;46.634;14.318;2023-02-28T04:55:44;-1.50;99.90
15217;DHT22;7711;46.634;14.318;2023-02-28T04:58:13;-1.40;99.90
15217;DHT22;7711;46.634;14.318;2023-02-28T05:00:40;-1.40;99.90
15217;DHT22;7711;46.634;14.318;2023-02-28T05:03:07;-1.40;99.90
15217;DHT22;7711;46.634;14.318;2023-02-28T05:05:35;-1.40;99.90
15217;DHT22;7711;46.634;14.318;2023-02-28T05:08:02;-1.50;99.90
15217;DHT22;7711;46.634;14.318;2023-02-28T05:10:30;-1.50;99.90
15217;DHT22;7711;46.634;14.318;2023-02-28T05:12:58;-1.50;99.90
15217;DHT22;7711;46.634;14.318;2023-02-28T05:15:26;-1.60;99.90
15217;DHT22;7711;46.634;14.318;2023-02-28T05:17:53;-1.50;99.90
15217;DHT22;7711;46.634;14.318;2023-02-28T05:20:20;-1.50;99.90
15217;DHT22;7711;46.634;14.318;2023-02-28T05:22:47;-1.60;99.90
15217;DHT22;7711;46.634;14.318;2023-02-28T05:25:17;-1.60;99.90
15217;DHT22;7711;46.634;14.318;2023-02-28T05:27:45;-1.50;99.90
15217;DHT22;7711;46.634;14.318;2023-02-28T05:30:13;-1.50;99.90
15217;DHT22;7711;46.634;14.318;2023-02-28T05:32:42;-1.50;99.90
15217;DHT22;7711;46.634;14.318;2023-02-28T05:35:10;-1.50;99.90
15217;DHT22;7711;46.634;14.318;2023-02-28T05:37:38;-1.40;99.90
15217;DHT22;7711;46.634;14.318;2023-02-28T05:40:06;-1.50;99.90
15217;DHT22;7711;46.634;14.318;2023-02-28T05:42:35;-1.40;99.90
15217;DHT22;7711;46.634;14.318;2023-02-28T05:45:03;-1.50;99.90
15217;DHT22;7711;46.634;14.318;2023-02-28T05:47:30;-1.50;99.90
15217;DHT22;7711;46.634;14.318;2023-02-28T05:49:58;-1.50;99.90
15217;DHT22;7711;46.634;14.318;2023-02-28T05:52:26;-1.50;99.90
15217;DHT22;7711;46.634;14.318;2023-02-28T05:54:53;-1.50;99.90
15217;DHT22;7711;46.634;14.318;2023-02-28T05:57:20;-1.50;99.90
15217;DHT22;7711;46.634;14.318;2023-02-28T05:59:47;-1.50;99.90
15217;DHT22;7711;46.634;14.318;2023-02-28T06:02:15;-1.50;99.90
15217;DHT22;7711;46.634;14.318;2023-02-28T06:04:43;-1.40;99.90
15217;DHT22;7711;46.634;14.318;2023-02-28T06:07:12;-1.40;99.90
15217;DHT22;7711;46.634;14.318;2023-02-28T06:09:39;-1.30;99.90
15217;DHT22;7711;46.634;14.318;2023-02-28T06:12:06;-1.30;99.90
15217;DHT22;7711;46.634;14.318;2023-02-28T06:14:35;-1.30;99.90
15217;DHT22;7711;46.634;14.318;2023-02-28T06:17:03;-1.30;99.90
15217;DHT22;7711;46.634;14.318;2023-02-28T06:19:30;-1.30;99.90
15217;DHT22;7711;46.634;14.318;2023-02-28T06:21:57;-1.20;99.90
15217;DHT22;7711;46.634;14.318;2023-02-28T06:24:26;-1.20;99.90
15217;DHT22;7711;46.634;14.318;2023-02-28T06:26:54;-1.20;99.90
15217;DHT22;7711;46.634;14.318;2023-02-28T06:29:21;-1.20;99.90
15217;DHT22;7711;46.634;14.318;2023-02-28T06:31:49;-1.20;99.90
15217;DHT22;7711;46.634;14.318;2023-02-28T06:34:16;-1.10;99.90
15217;DHT22;7711;46.634;14.318;2023-02-28T06:36:43;-1.20;99.90
15217;DHT22;7711;46.634;14.318;2023-02-28T06:39:10;-1.20;99.90
15217;DHT22;7711;46.634;14.318;2023-02-28T06:41:39;-1.30;99.90
15217;DHT22;7711;46.634;14.318;2023-02-28T06:44:10;-1.20;99.90
15217;DHT22;7711;46.634;14.318;2023-02-28T06:46:39;-1.10;99.90
15217;DHT22;7711;46.634;14.318;2023-02-28T06:49:06;-1.10;99.90
15217;DHT22;7711;46.634;14.318;2023-02-28T06:51:35;-1.10;99.90
15217;DHT22;7711;46.634;14.318;2023-02-28T06:54:02;-1.10;99.90
15217;DHT22;7711;46.634;14.318;2023-02-28T06:56:30;-1.10;99.90
15217;DHT22;7711;46.634;14.318;2023-02-28T06:58:58;-1.20;99.90
15217;DHT22;7711;46.634;14.318;2023-02-28T07:01:25;-1.10;99.90
15217;DHT22;7711;46.634;14.318;2023-02-28T07:03:53;-1.20;99.90
15217;DHT22;7711;46.634;14.318;2023-02-28T07:06:20;-1.10;99.90
15217;DHT22;7711;46.634;14.318;2023-02-28T07:08:49;-1.10;99.90
15217;DHT22;7711;46.634;14.318;2023-02-28T07:11:16;-1.00;99.90
15217;DHT22;7711;46.634;14.318;2023-02-28T07:13:43;-1.00;99.90
15217;DHT22;7711;46.634;14.318;2023-02-28T07:16:11;-1.00;99.90
15217;DHT22;7711;46.634;14.318;2023-02-28T07:18:39;-1.00;99.90
15217;DHT22;7711;46.634;14.318;2023-02-28T07:21:08;-0.90;99.90
15217;DHT22;7711;46.634;14.318;2023-02-28T07:23:35;-0.80;99.90
15217;DHT22;7711;46.634;14.318;2023-02-28T07:26:03;-0.80;99.90
15217;DHT22;7711;46.634;14.318;2023-02-28T07:28:30;-0.80;99.90
15217;DHT22;7711;46.634;14.318;2023-02-28T07:31:03;-0.80;99.90
15217;DHT22;7711;46.634;14.318;2023-02-28T07:33:32;-0.80;99.90
15217;DHT22;7711;46.634;14.318;2023-02-28T07:36:03;-0.90;99.90
15217;DHT22;7711;46.634;14.318;2023-02-28T07:38:30;-0.80;99.90
15217;DHT22;7711;46.634;14.318;2023-02-28T07:40:57;-0.80;99.90
15217;DHT22;7711;46.634;14.318;2023-02-28T07:43:24;-0.90;99.90
15217;DHT22;7711;46.634;14.318;2023-02-28T07:45:51;-0.80;99.90
15217;DHT22;7711;46.634;14.318;2023-02-28T07:48:18;-0.70;99.90
15217;DHT22;7711;46.634;14.318;2023-02-28T07:50:54;-0.60;99.90
15217;DHT22;7711;46.634;14.318;2023-02-28T07:53:22;-0.60;99.90
15217;DHT22;7711;46.634;14.318;2023-02-28T07:55:49;-0.60;99.90
15217;DHT22;7711;46.634;14.318;2023-02-28T07:58:16;-0.60;99.90
15217;DHT22;7711;46.634;14.318;2023-02-28T08:00:43;-0.60;99.90
15217;DHT22;7711;46.634;14.318;2023-02-28T08:03:11;-0.70;99.90
15217;DHT22;7711;46.634;14.318;2023-02-28T08:05:39;-0.70;99.90
15217;DHT22;7711;46.634;14.318;2023-02-28T08:08:08;-0.50;99.90
15217;DHT22;7711;46.634;14.318;2023-02-28T08:10:35;-0.60;99.90
15217;DHT22;7711;46.634;14.318;2023-02-28T08:13:03;-0.70;99.90
15217;DHT22;7711;46.634;14.318;2023-02-28T08:15:30;-0.70;99.90
15217;DHT22;7711;46.634;14.318;2023-02-28T08:17:57;-0.70;99.90
15217;DHT22;7711;46.634;14.318;2023-02-28T08:20:24;-0.60;99.90
15217;DHT22;7711;46.634;14.318;2023-02-28T08:22:52;-0.70;99.90
15217;DHT22;7711;46.634;14.318;2023-02-28T08:25:20;-0.40;99.90
15217;DHT22;7711;46.634;14.318;2023-02-28T08:27:47;-0.20;99.90
15217;DHT22;7711;46.634;14.318;2023-02-28T08:30:17;-0.20;99.90
15217;DHT22;7711;46.634;14.318;2023-02-28T08:32:44;-0.30;99.90
15217;DHT22;7711;46.634;14.318;2023-02-28T08:35:11;-0.20;99.90
15217;DHT22;7711;46.634;14.318;2023-02-28T08:37:38;-0.20;99.90
15217;DHT22;7711;46.634;14.318;2023-02-28T08:40:06;-0.30;99.90
15217;DHT22;7711;46.634;14.318;2023-02-28T08:42:35;-0.40;99.90
15217;DHT22;7711;46.634;14.318;2023-02-28T08:45:02;-0.40;99.90
15217;DHT22;7711;46.634;14.318;2023-02-28T08:47:29;-0.30;99.90
15217;DHT22;7711;46.634;14.318;2023-02-28T08:49:56;-0.30;99.90
15217;DHT22;7711;46.634;14.318;2023-02-28T08:52:23;-0.40;99.90
15217;DHT22;7711;46.634;14.318;2023-02-28T08:54:50;-0.30;99.90
15217;DHT22;7711;46.634;14.318;2023-02-28T08:57:17;0.00;99.90
15217;DHT22;7711;46.634;14.318;2023-02-28T08:59:45;-0.30;99.90
15217;DHT22;7711;46.634;14.318;2023-02-28T09:02:12;-0.10;99.90
15217;DHT22;7711;46.634;14.318;2023-02-28T09:04:40;0.10;99.90
15217;DHT22;7711;46.634;14.318;2023-02-28T09:07:07;-0.10;99.90
15217;DHT22;7711;46.634;14.318;2023-02-28T09:09:34;0.00;99.90
15217;DHT22;7711;46.634;14.318;2023-02-28T09:12:02;-0.20;99.90
15217;DHT22;7711;46.634;14.318;2023-02-28T09:14:29;-0.10;99.90
15217;DHT22;7711;46.634;14.318;2023-02-28T09:16:58;0.10;99.90
15217;DHT22;7711;46.634;14.318;2023-02-28T09:19:25;0.20;99.90
15217;DHT22;7711;46.634;14.318;2023-02-28T09:21:53;0.20;99.90
15217;DHT22;7711;46.634;14.318;2023-02-28T09:24:20;0.30;99.90
15217;DHT22;7711;46.634;14.318;2023-02-28T09:26:47;0.30;99.90
15217;DHT22;7711;46.634;14.318;2023-02-28T09:29:14;0.40;99.90
15217;DHT22;7711;46.634;14.318;2023-02-28T09:31:42;0.10;99.90
15217;DHT22;7711;46.634;14.318;2023-02-28T09:34:10;0.50;99.90
15217;DHT22;7711;46.634;14.318;2023-02-28T09:36:37;0.60;99.90
15217;DHT22;7711;46.634;14.318;2023-02-28T09:39:04;0.80;99.90
15217;DHT22;7711;46.634;14.318;2023-02-28T09:41:38;0.30;99.90
15217;DHT22;7711;46.634;14.318;2023-02-28T09:44:17;0.40;99.90
15217;DHT22;7711;46.634;14.318;2023-02-28T09:46:49;0.50;99.90
15217;DHT22;7711;46.634;14.318;2023-02-28T09:49:23;0.60;99.90
15217;DHT22;7711;46.634;14.318;2023-02-28T09:51:57;0.60;99.90
15217;DHT22;7711;46.634;14.318;2023-02-28T09:54:29;0.70;99.90
15217;DHT22;7711;46.634;14.318;2023-02-28T09:56:59;0.80;99.90
15217;DHT22;7711;46.634;14.318;2023-02-28T09:59:39;1.00;99.90
15217;DHT22;7711;46.634;14.318;2023-02-28T10:02:21;0.90;99.90
15217;DHT22;7711;46.634;14.318;2023-02-28T10:04:54;1.10;99.90
15217;DHT22;7711;46.634;14.318;2023-02-28T10:07:38;1.40;99.90
15217;DHT22;7711;46.634;14.318;2023-02-28T10:10:19;1.20;99.90
15217;DHT22;7711;46.634;14.318;2023-02-28T10:12:49;1.60;99.90
15217;DHT22;7711;46.634;14.318;2023-02-28T10:15:19;1.90;99.90
15217;DHT22;7711;46.634;14.318;2023-02-28T10:17:49;1.80;99.90
15217;DHT22;7711;46.634;14.318;2023-02-28T10:20:21;2.00;99.90
15217;DHT22;7711;46.634;14.318;2023-02-28T10:22:58;2.00;99.90
15217;DHT22;7711;46.634;14.318;2023-02-28T10:25:33;2.20;99.90
15217;DHT22;7711;46.634;14.318;2023-02-28T10:28:09;2.10;99.90
15217;DHT22;7711;46.634;14.318;2023-02-28T10:30:39;2.30;99.90
15217;DHT22;7711;46.634;14.318;2023-02-28T10:33:23;2.20;99.90
15217;DHT22;7711;46.634;14.318;2023-02-28T10:35:52;2.40;99.90
15217;DHT22;7711;46.634;14.318;2023-02-28T10:38:21;2.50;99.90
15217;DHT22;7711;46.634;14.318;2023-02-28T10:40:49;2.30;99.90
15217;DHT22;7711;46.634;14.318;2023-02-28T10:43:22;2.30;99.90
15217;DHT22;7711;46.634;14.318;2023-02-28T10:45:57;2.00;99.90
15217;DHT22;7711;46.634;14.318;2023-02-28T10:48:33;2.20;99.90
15217;DHT22;7711;46.634;14.318;2023-02-28T10:51:04;2.10;99.90
15217;DHT22;7711;46.634;14.318;2023-02-28T10:53:35;2.10;99.90
15217;DHT22;7711;46.634;14.318;2023-02-28T10:56:05;2.10;99.90
15217;DHT22;7711;46.634;14.318;2023-02-28T10:58:47;2.40;99.90
15217;DHT22;7711;46.634;14.318;2023-02-28T11:01:16;2.50;99.90
15217;DHT22;7711;46.634;14.318;2023-02-28T11:03:44;2.80;99.90
15217;DHT22;7711;46.634;14.318;2023-02-28T11:06:17;3.10;99.90
15217;DHT22;7711;46.634;14.318;2023-02-28T11:08:50;3.00;99.90
15217;DHT22;7711;46.634;14.318;2023-02-28T11:11:19;2.60;99.90
15217;DHT22;7711;46.634;14.318;2023-02-28T11:13:47;2.20;99.90
15217;DHT22;7711;46.634;14.318;2023-02-28T11:16:16;2.40;99.90
15217;DHT22;7711;46.634;14.318;2023-02-28T11:18:48;2.70;99.90
15217;DHT22;7711;46.634;14.318;2023-02-28T11:21:20;2.70;99.90
15217;DHT22;7711;46.634;14.318;2023-02-28T11:23:49;3.00;99.90
15217;DHT22;7711;46.634;14.318;2023-02-28T11:26:36;3.10;99.90
15217;DHT22;7711;46.634;14.318;2023-02-28T11:29:11;3.00;99.90
15217;DHT22;7711;46.634;14.318;2023-02-28T11:31:38;2.60;99.90
15217;DHT22;7711;46.634;14.318;2023-02-28T11:34:23;2.50;99.90
15217;DHT22;7711;46.634;14.318;2023-02-28T11:36:54;2.90;99.90
15217;DHT22;7711;46.634;14.318;2023-02-28T11:39:23;3.40;99.90
15217;DHT22;7711;46.634;14.318;2023-02-28T11:42:01;3.10;99.90
15217;DHT22;7711;46.634;14.318;2023-02-28T11:44:43;3.20;99.90
15217;DHT22;7711;46.634;14.318;2023-02-28T11:47:19;3.40;99.90
15217;DHT22;7711;46.634;14.318;2023-02-28T11:50:02;3.60;99.90
15217;DHT22;7711;46.634;14.318;2023-02-28T11:52:39;2.60;99.90
15217;DHT22;7711;46.634;14.318;2023-02-28T11:55:14;2.50;99.90
15217;DHT22;7711;46.634;14.318;2023-02-28T11:57:56;2.50;99.90
15217;DHT22;7711;46.634;14.318;2023-02-28T12:00:40;2.20;99.90
15217;DHT22;7711;46.634;14.318;2023-02-28T12:03:19;2.30;99.90
15217;DHT22;7711;46.634;14.318;2023-02-28T12:05:53;3.00;99.90
15217;DHT22;7711;46.634;14.318;2023-02-28T12:08:31;2.90;99.90
15217;DHT22;7711;46.634;14.318;2023-02-28T12:11:10;3.50;99.90
15217;DHT22;7711;46.634;14.318;2023-02-28T12:13:46;3.50;99.90
15217;DHT22;7711;46.634;14.318;2023-02-28T12:16:29;2.90;99.90
15217;DHT22;7711;46.634;14.318;2023-02-28T12:19:09;3.40;99.90
15217;DHT22;7711;46.634;14.318;2023-02-28T12:27:41;3.50;99.90
15217;DHT22;7711;46.634;14.318;2023-02-28T12:30:16;3.10;99.90
15217;DHT22;7711;46.634;14.318;2023-02-28T12:32:46;2.60;99.90
15217;DHT22;7711;46.634;14.318;2023-02-28T12:35:17;3.20;99.90
15217;DHT22;7711;46.634;14.318;2023-02-28T12:37:50;3.40;99.90
15217;DHT22;7711;46.634;14.318;2023-02-28T12:40:21;3.60;99.90
15217;DHT22;7711;46.634;14.318;2023-02-28T12:42:52;3.90;99.90
15217;DHT22;7711;46.634;14.318;2023-02-28T12:45:23;4.30;99.90
15217;DHT22;7711;46.634;14.318;2023-02-28T12:47:55;4.10;99.90
15217;DHT22;7711;46.634;14.318;2023-02-28T12:50:24;3.70;99.90
15217;DHT22;7711;46.634;14.318;2023-02-28T12:52:58;4.10;99.90
15217;DHT22;7711;46.634;14.318;2023-02-28T12:55:33;4.20;99.90
15217;DHT22;7711;46.634;14.318;2023-02-28T12:58:12;4.40;99.90
15217;DHT22;7711;46.634;14.318;2023-02-28T13:00:55;4.20;99.90
15217;DHT22;7711;46.634;14.318;2023-02-28T13:03:52;4.30;99.90
15217;DHT22;7711;46.634;14.318;2023-02-28T13:06:39;4.70;99.90
15217;DHT22;7711;46.634;14.318;2023-02-28T13:09:09;4.30;99.90
15217;DHT22;7711;46.634;14.318;2023-02-28T13:11:42;3.90;99.90
15217;DHT22;7711;46.634;14.318;2023-02-28T13:14:24;4.50;99.90
15217;DHT22;7711;46.634;14.318;2023-02-28T13:16:58;4.70;99.90
15217;DHT22;7711;46.634;14.318;2023-02-28T13:19:27;4.60;99.90
15217;DHT22;7711;46.634;14.318;2023-02-28T13:21:56;4.50;99.90
15217;DHT22;7711;46.634;14.318;2023-02-28T13:24:41;4.20;99.90
15217;DHT22;7711;46.634;14.318;2023-02-28T13:27:34;4.10;99.90
15217;DHT22;7711;46.634;14.318;2023-02-28T13:33:22;4.50;99.90
15217;DHT22;7711;46.634;14.318;2023-02-28T13:36:08;4.00;99.90
15217;DHT22;7711;46.634;14.318;2023-02-28T13:38:38;4.50;99.90
15217;DHT22;7711;46.634;14.318;2023-02-28T13:41:41;4.60;99.90
15217;DHT22;7711;46.634;14.318;2023-02-28T13:44:09;4.60;99.90
15217;DHT22;7711;46.634;14.318;2023-02-28T13:49:44;3.80;99.90
15217;DHT22;7711;46.634;14.318;2023-02-28T13:52:15;4.20;99.90
15217;DHT22;7711;46.634;14.318;2023-02-28T13:55:10;3.90;99.90
15217;DHT22;7711;46.634;14.318;2023-02-28T13:58:07;4.10;99.90
15217;DHT22;7711;46.634;14.318;2023-02-28T14:00:52;4.10;99.90
15217;DHT22;7711;46.634;14.318;2023-02-28T14:03:43;4.30;99.90
15217;DHT22;7711;46.634;14.318;2023-02-28T14:06:25;4.00;99.90
15217;DHT22;7711;46.634;14.318;2023-02-28T14:08:57;3.50;99.90
15217;DHT22;7711;46.634;14.318;2023-02-28T14:11:28;3.80;99.90
15217;DHT22;7711;46.634;14.318;2023-02-28T14:13:56;3.70;99.90
15217;DHT22;7711;46.634;14.318;2023-02-28T14:16:27;3.40;99.90
15217;DHT22;7711;46.634;14.318;2023-02-28T14:19:00;3.40;99.90
15217;DHT22;7711;46.634;14.318;2023-02-28T14:21:29;3.00;99.90
15217;DHT22;7711;46.634;14.318;2023-02-28T14:24:28;3.10;99.90
15217;DHT22;7711;46.634;14.318;2023-02-28T14:27:09;3.40;99.90
15217;DHT22;7711;46.634;14.318;2023-02-28T14:29:59;3.40;99.90
15217;DHT22;7711;46.634;14.318;2023-02-28T14:32:34;3.30;99.90
15217;DHT22;7711;46.634;14.318;2023-02-28T14:35:27;3.00;99.90
15217;DHT22;7711;46.634;14.318;2023-02-28T14:37:56;3.10;99.90
15217;DHT22;7711;46.634;14.318;2023-02-28T14:40:27;3.10;99.90
15217;DHT22;7711;46.634;14.318;2023-02-28T14:42:57;2.90;99.90
15217;DHT22;7711;46.634;14.318;2023-02-28T14:45:28;3.00;99.90
15217;DHT22;7711;46.634;14.318;2023-02-28T14:47:57;3.00;99.90
15217;DHT22;7711;46.634;14.318;2023-02-28T14:50:29;3.00;99.90
15217;DHT22;7711;46.634;14.318;2023-02-28T14:52:57;2.90;99.90
15217;DHT22;7711;46.634;14.318;2023-02-28T14:55:28;2.80;99.90
15217;DHT22;7711;46.634;14.318;2023-02-28T14:57:57;2.80;99.90
15217;DHT22;7711;46.634;14.318;2023-02-28T15:00:26;2.80;99.90
15217;DHT22;7711;46.634;14.318;2023-02-28T15:02:54;2.80;99.90
15217;DHT22;7711;46.634;14.318;2023-02-28T15:05:31;2.70;99.90
15217;DHT22;7711;46.634;14.318;2023-02-28T15:08:04;2.70;99.90
15217;DHT22;7711;46.634;14.318;2023-02-28T15:10:31;2.70;99.90
15217;DHT22;7711;46.634;14.318;2023-02-28T15:13:01;2.80;99.90
15217;DHT22;7711;46.634;14.318;2023-02-28T15:15:45;2.70;99.90
15217;DHT22;7711;46.634;14.318;2023-02-28T15:18:21;2.70;99.90
15217;DHT22;7711;46.634;14.318;2023-02-28T15:20:51;2.70;99.90
15217;DHT22;7711;46.634;14.318;2023-02-28T15:23:19;2.70;99.90
15217;DHT22;7711;46.634;14.318;2023-02-28T15:25:48;2.60;99.90
15217;DHT22;7711;46.634;14.318;2023-02-28T15:28:18;2.70;99.90
15217;DHT22;7711;46.634;14.318;2023-02-28T15:30:55;2.10;99.90
15217;DHT22;7711;46.634;14.318;2023-02-28T15:33:24;2.20;99.90
15217;DHT22;7711;46.634;14.318;2023-02-28T15:36:04;2.30;99.90
15217;DHT22;7711;46.634;14.318;2023-02-28T15:38:35;2.30;99.90
15217;DHT22;7711;46.634;14.318;2023-02-28T15:41:02;2.30;99.90
15217;DHT22;7711;46.634;14.318;2023-02-28T15:43:37;2.30;99.90
15217;DHT22;7711;46.634;14.318;2023-02-28T15:46:06;2.30;99.90
15217;DHT22;7711;46.634;14.318;2023-02-28T15:48:37;2.20;99.90
15217;DHT22;7711;46.634;14.318;2023-02-28T15:51:09;2.10;99.90
15217;DHT22;7711;46.634;14.318;2023-02-28T15:53:49;2.10;99.90
15217;DHT22;7711;46.634;14.318;2023-02-28T15:56:24;2.00;99.90
15217;DHT22;7711;46.634;14.318;2023-02-28T15:58:54;1.80;99.90
15217;DHT22;7711;46.634;14.318;2023-02-28T16:01:25;1.70;99.90
15217;DHT22;7711;46.634;14.318;2023-02-28T16:03:54;1.70;99.90
15217;DHT22;7711;46.634;14.318;2023-02-28T16:06:41;1.50;99.90
15217;DHT22;7711;46.634;14.318;2023-02-28T16:09:11;1.50;99.90
15217;DHT22;7711;46.634;14.318;2023-02-28T16:11:42;1.40;99.90
15217;DHT22;7711;46.634;14.318;2023-02-28T16:14:15;1.40;99.90
15217;DHT22;7711;46.634;14.318;2023-02-28T16:16:43;1.40;99.90
15217;DHT22;7711;46.634;14.318;2023-02-28T16:19:10;1.40;99.90